Terminal Aerodrome Forecast
Issued by NWS

Home | Current Version | Previous Version | Text Only | Print | Product List | Glossary Off
Versions: 1 2 3 4 5 6 7 8 9 10 11 12 13 14 15 16 17 18 19 20 21

000
FTUS43 KFGF 042044 AAA
TAFBJI
TAF AMD
KBJI 042044Z 0421/0518 19009KT 6SM -SN OVC010
      TEMPO 0421/0424 4SM -SN
     FM050600 22005KT P6SM BKN010
     FM051100 16005KT P6SM BKN008
     FM051600 12008KT P6SM BKN030=

USA.gov is the U.S. government's official web portal to all federal, state and local government web resources and services.